createdAt,value
2023-03-06T00:00:39.074Z,99606.10
2023-03-06T00:03:18.180Z,99605.67
2023-03-06T00:05:46.237Z,99603.91
2023-03-06T00:08:14.992Z,99606.06
2023-03-06T00:10:42.970Z,99609.23
2023-03-06T00:13:21.321Z,99608.11
2023-03-06T00:15:50.085Z,99606.06
2023-03-06T00:18:18.160Z,99607.25
2023-03-06T00:20:46.218Z,99605.48
2023-03-06T00:23:14.241Z,99607.54
2023-03-06T00:25:46.435Z,99607.21
2023-03-06T00:28:15.854Z,99605.79
2023-03-06T00:30:46.248Z,99605.46
2023-03-06T00:33:14.193Z,99604.02
2023-03-06T00:35:42.410Z,99601.45
2023-03-06T00:38:12.985Z,99600.45
2023-03-06T00:40:41.121Z,99601.81
2023-03-06T00:43:09.122Z,99598.77
2023-03-06T00:45:37.503Z,99597.35
2023-03-06T00:48:05.966Z,99593.52
2023-03-06T00:50:35.396Z,99594.59
2023-03-06T00:53:03.425Z,99591.84
2023-03-06T00:55:33.493Z,99590.35
2023-03-06T00:58:01.758Z,99591.34
2023-03-06T01:00:29.661Z,99594.15
2023-03-06T01:02:57.805Z,99592.16
2023-03-06T01:05:26.685Z,99589.81
2023-03-06T01:07:54.999Z,99593.81
2023-03-06T01:10:23.034Z,99596.08
2023-03-06T01:12:50.994Z,99594.70
2023-03-06T01:15:20.684Z,99589.61
2023-03-06T01:17:51.753Z,99586.39
2023-03-06T01:20:20.785Z,99588.39
2023-03-06T01:22:48.916Z,99587.05
2023-03-06T01:25:17.472Z,99583.24
2023-03-06T01:27:45.332Z,99581.68
2023-03-06T01:30:13.543Z,99586.23
2023-03-06T01:32:41.549Z,99585.20
2023-03-06T01:35:10.341Z,99585.26
2023-03-06T01:37:39.353Z,99586.02
2023-03-06T01:40:09.796Z,99583.90
2023-03-06T01:42:37.890Z,99581.84
2023-03-06T01:45:26.653Z,99578.82
2023-03-06T01:47:54.628Z,99577.40
2023-03-06T01:50:22.726Z,99574.37
2023-03-06T01:52:58.071Z,99574.57
2023-03-06T01:55:30.984Z,99570.73
2023-03-06T01:58:03.640Z,99573.88
2023-03-06T02:00:32.184Z,99575.10
2023-03-06T02:03:10.670Z,99580.34
2023-03-06T02:05:40.801Z,99581.90
2023-03-06T02:08:11.451Z,99577.80
2023-03-06T02:11:12.799Z,99578.42
2023-03-06T02:13:43.209Z,99580.30
2023-03-06T02:16:13.744Z,99581.13
2023-03-06T02:18:44.059Z,99584.40
2023-03-06T02:21:20.448Z,99581.80
2023-03-06T02:24:13.646Z,99581.89
2023-03-06T02:26:42.505Z,99583.70
2023-03-06T02:29:11.191Z,99579.50
2023-03-06T02:31:39.215Z,99579.20
2023-03-06T02:34:27.356Z,99579.02
2023-03-06T02:37:03.043Z,99580.92
2023-03-06T02:39:34.295Z,99580.58
2023-03-06T02:42:02.387Z,99580.27
2023-03-06T02:44:33.870Z,99575.84
2023-03-06T02:47:01.979Z,99576.90
2023-03-06T02:49:29.919Z,99576.91
2023-03-06T02:51:58.792Z,99573.44
2023-03-06T02:54:26.792Z,99572.30
2023-03-06T02:56:55.179Z,99571.81
2023-03-06T02:59:23.287Z,99573.89
2023-03-06T03:01:52.281Z,99574.75
2023-03-06T03:04:20.545Z,99568.17
2023-03-06T03:06:48.844Z,99569.67
2023-03-06T03:09:17.568Z,99572.52
2023-03-06T03:11:45.551Z,99569.77
2023-03-06T03:14:13.653Z,99568.15
2023-03-06T03:16:41.589Z,99566.16
2023-03-06T03:19:09.441Z,99567.65
2023-03-06T03:21:39.052Z,99569.30
2023-03-06T03:24:07.681Z,99564.34
2023-03-06T03:26:35.559Z,99562.16
2023-03-06T03:29:09.900Z,99562.44
2023-03-06T03:31:37.802Z,99561.66
2023-03-06T03:34:06.220Z,99562.03
2023-03-06T03:36:36.621Z,99561.58
2023-03-06T03:39:05.387Z,99560.11
2023-03-06T03:41:34.154Z,99561.61
2023-03-06T03:44:03.643Z,99563.30
2023-03-06T03:46:32.489Z,99561.36
2023-03-06T03:49:01.254Z,99564.23
2023-03-06T03:51:29.630Z,99564.86
2023-03-06T03:53:58.523Z,99568.34
2023-03-06T03:56:28.405Z,99567.39
2023-03-06T03:59:01.279Z,99570.73
2023-03-06T04:01:32.826Z,99571.84
2023-03-06T04:04:00.854Z,99570.58
2023-03-06T04:06:29.978Z,99568.95
2023-03-06T04:08:57.993Z,99570.63
2023-03-06T04:11:26.402Z,99572.16
2023-03-06T04:13:54.644Z,99570.00
2023-03-06T04:16:23.184Z,99571.03
2023-03-06T04:18:51.937Z,99571.52
2023-03-06T04:21:21.292Z,99574.42
2023-03-06T04:23:49.612Z,99573.67
2023-03-06T04:26:17.662Z,99572.89
2023-03-06T04:28:45.604Z,99572.30
2023-03-06T04:31:13.831Z,99570.83
2023-03-06T04:33:42.110Z,99571.59
2023-03-06T04:36:24.238Z,99568.45
2023-03-06T04:38:52.849Z,99568.89
2023-03-06T04:41:20.948Z,99569.48
2023-03-06T04:43:49.055Z,99567.19
2023-03-06T04:46:17.499Z,99569.30
2023-03-06T04:48:45.472Z,99570.77
2023-03-06T04:51:14.855Z,99569.13
2023-03-06T04:53:42.915Z,99567.04
2023-03-06T04:56:10.958Z,99566.77
2023-03-06T04:58:38.963Z,99568.29
2023-03-06T05:01:07.030Z,99568.64
2023-03-06T05:03:35.255Z,99566.50
2023-03-06T05:06:03.295Z,99564.55
2023-03-06T05:08:31.439Z,99566.19
2023-03-06T05:11:02.503Z,99565.35
2023-03-06T05:13:30.304Z,99567.55
2023-03-06T05:16:03.653Z,99565.03
2023-03-06T05:18:32.951Z,99566.05
2023-03-06T05:21:01.501Z,99565.92
2023-03-06T05:23:31.633Z,99567.95
2023-03-06T05:25:59.573Z,99567.77
2023-03-06T05:28:28.756Z,99568.96
2023-03-06T05:30:56.696Z,99570.47
2023-03-06T05:33:24.694Z,99570.23
2023-03-06T05:35:52.947Z,99568.36
2023-03-06T05:38:23.068Z,99568.89
2023-03-06T05:40:50.975Z,99568.73
2023-03-06T05:43:19.046Z,99571.89
2023-03-06T05:45:50.568Z,99573.61
2023-03-06T05:48:18.972Z,99573.55
2023-03-06T05:50:46.933Z,99573.65
2023-03-06T05:53:14.852Z,99577.09
2023-03-06T05:55:42.774Z,99579.92
2023-03-06T05:58:10.668Z,99579.02
2023-03-06T06:00:38.675Z,99578.34
2023-03-06T06:03:12.452Z,99584.04
2023-03-06T06:05:41.255Z,99588.02
2023-03-06T06:08:09.355Z,99591.30
2023-03-06T06:10:38.133Z,99591.75
2023-03-06T06:13:06.085Z,99592.11
2023-03-06T06:15:34.166Z,99595.32
2023-03-06T06:18:02.132Z,99598.35
2023-03-06T06:20:30.279Z,99602.64
2023-03-06T06:22:58.630Z,99599.91
2023-03-06T06:25:28.980Z,99598.53
2023-03-06T06:27:58.000Z,99601.00
2023-03-06T06:30:26.054Z,99602.08
2023-03-06T06:32:54.483Z,99602.81
2023-03-06T06:35:25.886Z,99604.73
2023-03-06T06:37:56.539Z,99601.84
2023-03-06T06:40:27.618Z,99598.75
2023-03-06T06:42:55.665Z,99596.89
2023-03-06T06:45:23.680Z,99594.67
2023-03-06T06:47:52.088Z,99594.70
2023-03-06T06:50:20.271Z,99592.01
2023-03-06T06:52:48.351Z,99596.92
2023-03-06T06:55:16.565Z,99602.41
2023-03-06T06:57:44.598Z,99601.46
2023-03-06T07:00:14.705Z,99603.09
2023-03-06T07:02:42.715Z,99605.73
2023-03-06T07:05:10.887Z,99606.78
2023-03-06T07:07:39.049Z,99608.40
2023-03-06T07:10:13.514Z,99610.05
2023-03-06T07:12:41.973Z,99611.08
2023-03-06T07:15:14.417Z,99614.55
2023-03-06T07:17:42.606Z,99613.85
2023-03-06T07:20:12.759Z,99619.83
2023-03-06T07:22:50.404Z,99623.09
2023-03-06T07:25:19.715Z,99626.98
2023-03-06T07:27:53.257Z,99627.96
2023-03-06T07:30:23.334Z,99630.95
2023-03-06T07:32:56.569Z,99629.66
2023-03-06T07:35:25.297Z,99630.98
2023-03-06T07:37:53.612Z,99634.80
2023-03-06T07:40:21.912Z,99638.84
2023-03-06T07:42:50.050Z,99636.47
2023-03-06T07:45:20.268Z,99636.27
2023-03-06T07:47:52.635Z,99634.60
2023-03-06T07:50:21.714Z,99637.81
2023-03-06T07:52:50.926Z,99639.71
2023-03-06T07:55:18.987Z,99636.39
2023-03-06T07:57:50.593Z,99634.59
2023-03-06T08:00:19.473Z,99637.05
2023-03-06T08:02:47.542Z,99637.02
2023-03-06T08:05:17.153Z,99636.08
2023-03-06T08:07:45.754Z,99634.70
2023-03-06T08:10:15.530Z,99635.61
2023-03-06T08:12:44.034Z,99636.36
2023-03-06T08:15:12.792Z,99641.09
2023-03-06T08:17:40.871Z,99642.75
2023-03-06T08:20:10.440Z,99642.03
2023-03-06T08:22:38.947Z,99640.91
2023-03-06T08:25:08.159Z,99644.52
2023-03-06T08:27:36.497Z,99644.98
2023-03-06T08:30:06.290Z,99646.14
2023-03-06T08:32:38.252Z,99649.34
2023-03-06T08:35:07.112Z,99649.83
2023-03-06T08:37:35.184Z,99650.81
2023-03-06T08:40:04.800Z,99652.94
2023-03-06T08:42:33.175Z,99654.03
2023-03-06T08:45:01.377Z,99650.90
2023-03-06T08:47:29.646Z,99654.40
2023-03-06T08:50:00.407Z,99650.10
2023-03-06T08:52:28.793Z,99652.19
2023-03-06T08:54:58.120Z,99648.62
2023-03-06T08:57:26.256Z,99650.79
2023-03-06T08:59:54.515Z,99650.92
2023-03-06T09:02:22.708Z,99655.07
2023-03-06T09:04:50.904Z,99654.89
2023-03-06T09:07:19.050Z,99655.59
2023-03-06T09:09:47.171Z,99657.12
2023-03-06T09:12:16.202Z,99650.53
2023-03-06T09:14:44.246Z,99648.65
2023-03-06T09:17:12.215Z,99642.45
2023-03-06T09:19:40.258Z,99639.81
2023-03-06T09:22:08.331Z,99637.96
2023-03-06T09:24:36.956Z,99636.78
2023-03-06T09:27:05.074Z,99638.20
2023-03-06T09:29:33.257Z,99641.30
2023-03-06T09:32:01.366Z,99637.45
2023-03-06T09:34:29.546Z,99643.33
2023-03-06T09:36:57.791Z,99643.06
2023-03-06T09:39:27.443Z,99642.32
2023-03-06T09:41:57.706Z,99647.27
2023-03-06T09:44:29.924Z,99640.79
2023-03-06T09:47:16.265Z,99643.95
2023-03-06T09:50:05.475Z,99641.98
2023-03-06T09:52:36.356Z,99642.20
2023-03-06T09:55:10.500Z,99642.59
2023-03-06T09:57:42.981Z,99645.88
2023-03-06T10:00:17.097Z,99646.23
2023-03-06T10:02:53.692Z,99651.08
2023-03-06T10:05:33.406Z,99647.65
2023-03-06T10:08:03.516Z,99649.23
2023-03-06T10:10:44.979Z,99652.44
2023-03-06T10:13:25.294Z,99644.82
2023-03-06T10:15:59.428Z,99641.02
2023-03-06T10:18:27.909Z,99637.27
2023-03-06T10:21:18.372Z,99628.08
2023-03-06T10:23:55.155Z,99623.64
2023-03-06T10:26:33.665Z,99621.20
2023-03-06T10:29:14.724Z,99618.44
2023-03-06T10:31:54.264Z,99617.48
2023-03-06T10:34:33.644Z,99615.41
2023-03-06T10:37:13.577Z,99614.48
2023-03-06T10:39:41.488Z,99611.11
2023-03-06T10:42:10.563Z,99606.92
2023-03-06T10:44:39.118Z,99600.62
2023-03-06T10:47:30.095Z,99592.74
2023-03-06T10:50:01.080Z,99587.11
2023-03-06T10:52:32.911Z,99583.55
2023-03-06T10:55:24.570Z,99584.27
2023-03-06T10:57:52.717Z,99581.00
2023-03-06T11:00:30.231Z,99582.03
2023-03-06T11:03:17.851Z,99578.50
2023-03-06T11:06:05.257Z,99578.58
2023-03-06T11:08:35.550Z,99581.20
2023-03-06T11:11:22.431Z,99575.85
2023-03-06T11:13:59.188Z,99570.14
2023-03-06T11:16:30.796Z,99566.14
2023-03-06T11:19:17.648Z,99568.19
2023-03-06T11:22:00.224Z,99561.77
2023-03-06T11:24:36.505Z,99556.67
2023-03-06T11:27:34.454Z,99552.45
2023-03-06T11:30:18.410Z,99545.66
2023-03-06T11:32:54.066Z,99538.06
2023-03-06T11:35:29.046Z,99534.58
2023-03-06T11:38:20.599Z,99530.30
2023-03-06T11:41:00.734Z,99528.72
2023-03-06T11:43:52.824Z,99526.33
2023-03-06T11:46:28.899Z,99524.57
2023-03-06T11:49:13.920Z,99519.30
2023-03-06T11:51:48.218Z,99515.30
2023-03-06T11:54:16.456Z,99510.64
2023-03-06T11:56:51.813Z,99510.19
2023-03-06T11:59:31.925Z,99508.85
2023-03-06T12:02:33.831Z,99501.05
2023-03-06T12:05:23.651Z,99489.19
2023-03-06T12:08:01.649Z,99482.77
2023-03-06T12:10:51.528Z,99480.85
2023-03-06T12:13:35.858Z,99470.23
2023-03-06T12:16:25.650Z,99461.89
2023-03-06T12:19:18.653Z,99456.70
2023-03-06T12:22:06.389Z,99456.01
2023-03-06T12:25:18.555Z,99447.34
2023-03-06T12:28:09.736Z,99439.66
2023-03-06T12:30:53.150Z,99434.73
2023-03-06T12:33:34.349Z,99431.27
2023-03-06T12:36:33.022Z,99429.67
2023-03-06T12:39:17.019Z,99421.88
2023-03-06T12:42:17.853Z,99417.96
2023-03-06T12:45:14.665Z,99413.08
2023-03-06T12:47:46.634Z,99412.25
2023-03-06T12:50:37.078Z,99409.11
2023-03-06T12:53:12.991Z,99406.88
2023-03-06T12:55:45.127Z,99402.69
2023-03-06T12:58:28.376Z,99400.14
2023-03-06T13:01:45.574Z,99394.04
2023-03-06T13:04:28.121Z,99389.56
2023-03-06T13:07:07.964Z,99385.70
2023-03-06T13:10:16.596Z,99380.02
2023-03-06T13:12:55.704Z,99374.98
2023-03-06T13:15:37.071Z,99368.27
2023-03-06T13:18:23.561Z,99365.95
2023-03-06T13:20:54.959Z,99364.80
2023-03-06T13:23:32.066Z,99365.20
2023-03-06T13:26:02.108Z,99363.20
2023-03-06T13:28:50.228Z,99360.48
2023-03-06T13:31:33.752Z,99359.38
2023-03-06T13:34:05.519Z,99356.09
2023-03-06T13:36:36.700Z,99353.34
2023-03-06T13:39:13.201Z,99353.71
2023-03-06T13:41:43.068Z,99353.60
2023-03-06T13:44:31.310Z,99353.58
2023-03-06T13:47:24.889Z,99351.94
2023-03-06T13:49:53.071Z,99342.77
2023-03-06T13:52:28.177Z,99336.42
2023-03-06T13:55:10.551Z,99330.33
2023-03-06T13:57:41.526Z,99326.94
2023-03-06T14:00:21.987Z,99323.84
2023-03-06T14:03:25.200Z,99316.49
2023-03-06T14:05:53.371Z,99306.15
2023-03-06T14:08:28.871Z,99307.38
2023-03-06T14:11:27.312Z,99311.09
2023-03-06T14:13:57.364Z,99312.90
2023-03-06T14:16:32.718Z,99308.17
2023-03-06T14:19:08.679Z,99303.60
2023-03-06T14:21:47.803Z,99305.20
2023-03-06T14:24:19.363Z,99301.29
2023-03-06T14:26:50.569Z,99299.08
2023-03-06T14:29:22.859Z,99299.64
2023-03-06T14:31:56.197Z,99298.68
2023-03-06T14:34:28.576Z,99296.70
2023-03-06T14:37:08.275Z,99295.80
2023-03-06T14:39:41.834Z,99295.98
2023-03-06T14:42:15.666Z,99295.77
2023-03-06T14:44:44.960Z,99294.68
2023-03-06T14:47:26.584Z,99293.92
2023-03-06T14:50:20.180Z,99293.22
2023-03-06T14:52:49.866Z,99296.64
2023-03-06T14:55:24.003Z,99293.05
2023-03-06T14:57:58.163Z,99286.56
2023-03-06T15:00:41.391Z,99288.23
2023-03-06T15:03:26.460Z,99289.58
2023-03-06T15:05:56.987Z,99287.99
2023-03-06T15:08:30.562Z,99284.30
2023-03-06T15:11:03.348Z,99283.11
2023-03-06T15:13:32.899Z,99282.67
2023-03-06T15:16:02.402Z,99276.59
2023-03-06T15:18:56.367Z,99273.13
2023-03-06T15:21:26.863Z,99273.28
2023-03-06T15:23:57.523Z,99271.88
2023-03-06T15:26:34.008Z,99271.20
2023-03-06T15:29:11.399Z,99269.36
2023-03-06T15:31:48.663Z,99265.92
2023-03-06T15:34:23.758Z,99265.11
2023-03-06T15:36:57.558Z,99262.36
2023-03-06T15:39:36.579Z,99260.67
2023-03-06T15:42:07.269Z,99260.98
2023-03-06T15:44:35.416Z,99259.64
2023-03-06T15:47:08.801Z,99256.26
2023-03-06T15:49:38.971Z,99253.71
2023-03-06T15:52:08.080Z,99257.69
2023-03-06T15:54:36.889Z,99254.17
2023-03-06T15:57:07.357Z,99252.73
2023-03-06T15:59:43.979Z,99251.15
2023-03-06T16:02:18.474Z,99248.91
2023-03-06T16:04:47.628Z,99247.80
2023-03-06T16:07:15.916Z,99245.82
2023-03-06T16:09:44.920Z,99245.40
2023-03-06T16:12:17.480Z,99248.80
2023-03-06T16:14:51.419Z,99249.48
2023-03-06T16:17:19.419Z,99249.29
2023-03-06T16:19:47.459Z,99249.80
2023-03-06T16:22:15.332Z,99249.68
2023-03-06T16:24:43.334Z,99247.45
2023-03-06T16:27:18.966Z,99249.23
2023-03-06T16:29:47.302Z,99250.74
2023-03-06T16:32:15.362Z,99248.91
2023-03-06T16:34:43.765Z,99249.02
2023-03-06T16:37:14.339Z,99247.55
2023-03-06T16:39:42.724Z,99245.00
2023-03-06T16:42:11.592Z,99247.11
2023-03-06T16:44:39.914Z,99245.05
2023-03-06T16:47:12.521Z,99245.40
2023-03-06T16:49:40.696Z,99246.45
2023-03-06T16:52:11.504Z,99243.92
2023-03-06T16:54:39.449Z,99242.67
2023-03-06T16:57:07.489Z,99240.46
2023-03-06T16:59:35.557Z,99238.11
2023-03-06T17:02:03.819Z,99235.92
2023-03-06T17:04:34.420Z,99235.36
2023-03-06T17:07:03.238Z,99235.71
2023-03-06T17:09:31.766Z,99231.78
2023-03-06T17:12:00.042Z,99229.89
2023-03-06T17:14:28.191Z,99230.00
2023-03-06T17:16:56.372Z,99229.00
2023-03-06T17:19:24.498Z,99228.19
2023-03-06T17:21:52.605Z,99224.84
2023-03-06T17:24:20.905Z,99221.23
2023-03-06T17:26:49.051Z,99217.02
2023-03-06T17:29:17.310Z,99211.60
2023-03-06T17:31:46.816Z,99212.20
2023-03-06T17:34:15.101Z,99213.11
2023-03-06T17:36:44.170Z,99211.67
2023-03-06T17:39:13.104Z,99211.61
2023-03-06T17:41:46.237Z,99209.63
2023-03-06T17:44:19.927Z,99205.24
2023-03-06T17:46:48.413Z,99199.65
2023-03-06T17:49:23.361Z,99198.67
2023-03-06T17:51:52.546Z,99196.92
2023-03-06T17:54:21.376Z,99196.91
2023-03-06T17:56:55.104Z,99192.27
2023-03-06T17:59:23.195Z,99189.89
2023-03-06T18:01:57.504Z,99189.67
2023-03-06T18:04:32.495Z,99188.73
2023-03-06T18:07:00.752Z,99182.70
2023-03-06T18:09:29.723Z,99179.35
2023-03-06T18:11:57.874Z,99171.65
2023-03-06T18:14:25.917Z,99164.86
2023-03-06T18:16:54.660Z,99164.17
2023-03-06T18:19:22.834Z,99166.44
2023-03-06T18:21:51.009Z,99160.36
2023-03-06T18:24:19.076Z,99161.91
2023-03-06T18:26:47.239Z,99160.11
2023-03-06T18:29:15.279Z,99162.55
2023-03-06T18:31:50.078Z,99162.35
2023-03-06T18:34:18.596Z,99162.09
2023-03-06T18:36:52.038Z,99164.38
2023-03-06T18:39:21.546Z,99166.43
2023-03-06T18:41:49.824Z,99167.53
2023-03-06T18:44:19.137Z,99167.27
2023-03-06T18:46:49.734Z,99166.34
2023-03-06T18:49:18.036Z,99169.17
2023-03-06T18:51:50.220Z,99166.89
2023-03-06T18:54:18.668Z,99164.31
2023-03-06T18:56:46.689Z,99163.02
2023-03-06T18:59:18.517Z,99161.42
2023-03-06T19:01:47.911Z,99161.95
2023-03-06T19:04:23.741Z,99165.04
2023-03-06T19:06:55.694Z,99166.95
2023-03-06T19:09:24.407Z,99172.54
2023-03-06T19:11:54.851Z,99173.63
2023-03-06T19:14:23.249Z,99174.77
2023-03-06T19:16:51.516Z,99174.44
2023-03-06T19:19:19.926Z,99171.23
2023-03-06T19:21:48.054Z,99170.63
2023-03-06T19:24:16.395Z,99173.01
2023-03-06T19:26:44.561Z,99169.98
2023-03-06T19:29:12.700Z,99168.25
2023-03-06T19:31:42.271Z,99170.93
2023-03-06T19:34:10.704Z,99171.60
2023-03-06T19:36:41.010Z,99172.59
2023-03-06T19:39:09.602Z,99165.25
2023-03-06T19:41:37.651Z,99164.35
2023-03-06T19:44:06.134Z,99166.67
2023-03-06T19:46:36.223Z,99169.77
2023-03-06T19:49:11.783Z,99172.59
2023-03-06T19:51:39.975Z,99176.95
2023-03-06T19:54:09.593Z,99176.66
2023-03-06T19:56:37.671Z,99180.52
2023-03-06T19:59:05.569Z,99177.85
2023-03-06T20:01:34.555Z,99181.27
2023-03-06T20:04:03.401Z,99183.54
2023-03-06T20:06:33.767Z,99187.05
2023-03-06T20:09:05.288Z,99188.20
2023-03-06T20:11:33.372Z,99188.38
2023-03-06T20:14:03.737Z,99192.39
2023-03-06T20:16:32.701Z,99187.17
2023-03-06T20:19:01.438Z,99190.86
2023-03-06T20:21:32.194Z,99194.70
2023-03-06T20:24:00.155Z,99198.31
2023-03-06T20:26:29.403Z,99193.98
2023-03-06T20:28:57.837Z,99196.02
2023-03-06T20:31:28.559Z,99193.36
2023-03-06T20:33:58.628Z,99197.29
2023-03-06T20:36:30.234Z,99201.97
2023-03-06T20:39:03.064Z,99200.83
2023-03-06T20:41:31.893Z,99203.73
2023-03-06T20:44:02.149Z,99205.80
2023-03-06T20:46:30.679Z,99206.05
2023-03-06T20:48:59.686Z,99205.05
2023-03-06T20:51:33.458Z,99206.59
2023-03-06T20:54:02.231Z,99215.50
2023-03-06T20:56:35.507Z,99211.63
2023-03-06T20:59:11.644Z,99216.11
2023-03-06T21:01:45.430Z,99218.12
2023-03-06T21:04:14.888Z,99215.30
2023-03-06T21:06:47.236Z,99214.02
2023-03-06T21:09:17.422Z,99212.16
2023-03-06T21:11:46.279Z,99213.61
2023-03-06T21:14:15.041Z,99213.72
2023-03-06T21:16:43.955Z,99211.02
2023-03-06T21:19:11.921Z,99210.79
2023-03-06T21:21:39.827Z,99212.09
2023-03-06T21:24:08.371Z,99211.94
2023-03-06T21:26:36.544Z,99212.27
2023-03-06T21:29:04.918Z,99218.02
2023-03-06T21:31:33.600Z,99212.86
2023-03-06T21:34:04.499Z,99213.19
2023-03-06T21:36:33.536Z,99218.82
2023-03-06T21:39:01.453Z,99218.91
2023-03-06T21:41:31.289Z,99220.97
2023-03-06T21:44:01.820Z,99217.52
2023-03-06T21:46:30.191Z,99213.88
2023-03-06T21:48:59.054Z,99209.29
2023-03-06T21:51:27.120Z,99206.48
2023-03-06T21:53:55.862Z,99209.31
2023-03-06T21:56:25.438Z,99207.90
2023-03-06T21:58:54.348Z,99208.88
2023-03-06T22:01:28.506Z,99206.92
2023-03-06T22:03:58.786Z,99202.92
2023-03-06T22:06:28.626Z,99202.11
2023-03-06T22:08:58.350Z,99201.67
2023-03-06T22:11:29.832Z,99197.27
2023-03-06T22:13:58.240Z,99195.36
2023-03-06T22:16:26.360Z,99194.42
2023-03-06T22:18:54.384Z,99191.73
2023-03-06T22:21:23.449Z,99190.72
2023-03-06T22:23:54.630Z,99190.52
2023-03-06T22:26:23.746Z,99189.25
2023-03-06T22:28:52.159Z,99187.80
2023-03-06T22:31:25.695Z,99187.31
2023-03-06T22:33:55.064Z,99188.58
2023-03-06T22:36:24.177Z,99186.25
2023-03-06T22:38:58.612Z,99184.22
2023-03-06T22:41:27.390Z,99184.98
2023-03-06T22:43:57.168Z,99184.73
2023-03-06T22:46:25.871Z,99182.84
2023-03-06T22:49:01.570Z,99184.38
2023-03-06T22:51:29.810Z,99187.73
2023-03-06T22:53:58.339Z,99190.41
2023-03-06T22:56:26.336Z,99189.39
2023-03-06T22:58:54.427Z,99188.96
2023-03-06T23:01:25.348Z,99187.66
2023-03-06T23:03:54.668Z,99188.09
2023-03-06T23:06:28.589Z,99188.09
2023-03-06T23:09:08.946Z,99190.36
2023-03-06T23:11:55.539Z,99190.79
2023-03-06T23:14:41.935Z,99190.00
2023-03-06T23:17:28.688Z,99187.39
2023-03-06T23:20:15.280Z,99188.47
2023-03-06T23:23:02.047Z,99187.79
2023-03-06T23:25:43.627Z,99189.71
2023-03-06T23:28:11.971Z,99190.60
2023-03-06T23:30:40.176Z,99192.23
2023-03-06T23:33:08.638Z,99192.35
2023-03-06T23:35:39.159Z,99189.02
2023-03-06T23:38:07.371Z,99190.84
2023-03-06T23:40:37.326Z,99190.86
2023-03-06T23:43:05.980Z,99192.17
2023-03-06T23:45:34.422Z,99196.15
2023-03-06T23:48:02.321Z,99194.15
2023-03-06T23:50:30.402Z,99192.52
2023-03-06T23:52:58.275Z,99192.34
2023-03-06T23:55:26.230Z,99192.54
2023-03-06T23:57:54.444Z,99191.81
